Time;durP1;ratioP1;P1;durP2;ratioP2;P2;SDS_P1;SDS_P2;PMS_P1;PMS_P2;Temp;Humidity;BMP_temperature;BMP_pressure;BME280_temperature;BME280_humidity;BME280_pressure;Samples;Min_cycle;Max_cycle;Signal;HPM_P1;HPM_P2
2021/07/12 00:01:38;;;;;;;6.30;3.00;;;;;;;;;;4969644;28;20027;-82
2021/07/12 00:04:23;;;;;;;7.57;3.15;;;;;;;;;;4968587;28;20031;-83
2021/07/12 00:07:08;;;;;;;4.15;3.00;;;;;;;;;;4968684;28;20596;-82
2021/07/12 00:09:53;;;;;;;9.85;3.28;;;;;;;;;;4969894;28;20094;-83
2021/07/12 00:12:39;;;;;;;5.28;3.08;;;;;;;;;;4969775;28;20106;-83
2021/07/12 00:15:25;;;;;;;7.35;3.97;;;;;;;;;;4963438;28;20118;-84
2021/07/12 00:18:10;;;;;;;5.68;3.20;;;;;;;;;;4969216;28;20026;-84
2021/07/12 00:20:55;;;;;;;6.05;3.60;;;;;;;;;;4969315;28;20034;-84
2021/07/12 00:23:41;;;;;;;7.30;4.53;;;;;;;;;;4963456;28;20023;-84
2021/07/12 00:26:26;;;;;;;5.22;3.28;;;;;;;;;;4952000;28;20073;-84
2021/07/12 00:29:11;;;;;;;4.40;3.00;;;;;;;;;;4969021;28;20033;-84
2021/07/12 00:31:56;;;;;;;8.27;3.28;;;;;;;;;;4969356;28;20019;-83
2021/07/12 00:34:41;;;;;;;4.65;3.08;;;;;;;;;;4969139;28;20022;-83
2021/07/12 00:37:27;;;;;;;6.78;2.92;;;;;;;;;;4958048;28;20031;-84
2021/07/12 00:40:13;;;;;;;5.68;3.22;;;;;;;;;;4949997;29;20030;-83
2021/07/12 00:43:00;;;;;;;5.78;3.47;;;;;;;;;;4946724;29;20106;-84
2021/07/12 00:45:46;;;;;;;7.65;3.33;;;;;;;;;;4949986;29;20433;-82
2021/07/12 00:48:33;;;;;;;5.80;3.13;;;;;;;;;;4967954;28;20168;-83
2021/07/12 00:51:18;;;;;;;5.95;2.80;;;;;;;;;;4961275;28;20031;-82
2021/07/12 00:54:03;;;;;;;7.18;3.25;;;;;;;;;;4949698;29;20033;-84
2021/07/12 00:56:49;;;;;;;4.97;2.80;;;;;;;;;;4951408;28;20019;-83
2021/07/12 00:59:35;;;;;;;7.25;3.08;;;;;;;;;;4969028;28;20128;-83
2021/07/12 01:02:20;;;;;;;5.05;3.00;;;;;;;;;;4974095;28;20023;-83
2021/07/12 01:05:07;;;;;;;7.10;3.50;;;;;;;;;;4975318;28;20442;-83
2021/07/12 01:07:52;;;;;;;7.40;3.38;;;;;;;;;;4967915;28;20086;-85
2021/07/12 01:10:38;;;;;;;5.47;3.15;;;;;;;;;;4956226;28;20126;-82
2021/07/12 01:13:35;;;;;;;5.03;3.20;;;;;;;;;;4984761;28;20034;-82
2021/07/12 01:16:29;;;;;;;5.15;3.17;;;;;;;;;;4969655;28;20375;-82
2021/07/12 01:19:33;;;;;;;5.90;3.08;;;;;;;;;;4975864;28;20381;-83
2021/07/12 01:22:51;;;;;;;4.10;3.10;;;;;;;;;;4975410;28;20033;-83
2021/07/12 01:25:51;;;;;;;4.80;2.90;;;;;;;;;;4951379;28;20117;-83
2021/07/12 01:28:39;;;;;;;6.82;3.10;;;;;;;;;;4968943;28;20027;-83
2021/07/12 01:31:43;;;;;;;4.70;2.80;;;;;;;;;;4956432;29;20108;-83
2021/07/12 01:34:40;;;;;;;6.88;2.67;;;;;;;;;;4955827;28;20059;-83
2021/07/12 01:37:39;;;;;;;6.28;3.30;;;;;;;;;;4974530;28;20252;-83
2021/07/12 01:40:31;;;;;;;5.55;3.08;;;;;;;;;;4974841;28;20474;-83
2021/07/12 01:43:35;;;;;;;4.10;3.00;;;;;;;;;;4974865;28;20034;-82
2021/07/12 01:46:23;;;;;;;4.80;3.13;;;;;;;;;;4969021;28;20038;-82
2021/07/12 01:49:20;;;;;;;5.43;3.03;;;;;;;;;;4961318;28;20540;-81
2021/07/12 01:52:24;;;;;;;4.60;3.17;;;;;;;;;;4975249;28;20059;-83
2021/07/12 01:55:23;;;;;;;7.60;2.88;;;;;;;;;;4974981;28;20596;-82
2021/07/12 01:58:12;;;;;;;3.22;2.70;;;;;;;;;;4969020;28;20534;-82
2021/07/12 02:00:58;;;;;;;6.90;3.15;;;;;;;;;;4954162;28;20023;-82
2021/07/12 02:03:44;;;;;;;6.22;2.92;;;;;;;;;;4972986;28;20074;-83
2021/07/12 02:06:33;;;;;;;3.65;2.72;;;;;;;;;;4974999;28;20046;-83
2021/07/12 02:09:19;;;;;;;7.47;3.08;;;;;;;;;;4974596;28;20422;-83
2021/07/12 02:12:04;;;;;;;5.43;2.78;;;;;;;;;;4974667;28;20437;-82
2021/07/12 02:14:50;;;;;;;6.45;3.25;;;;;;;;;;4955918;28;20018;-82
2021/07/12 02:17:36;;;;;;;5.63;3.30;;;;;;;;;;4971524;28;20038;-81
2021/07/12 02:20:23;;;;;;;5.05;3.00;;;;;;;;;;4957075;28;20085;-82
2021/07/12 02:23:09;;;;;;;6.75;2.92;;;;;;;;;;4965341;28;20023;-82
2021/07/12 02:25:55;;;;;;;3.53;2.67;;;;;;;;;;4952469;29;20042;-82
2021/07/12 02:28:44;;;;;;;3.90;2.83;;;;;;;;;;4950683;29;20439;-83
2021/07/12 02:31:30;;;;;;;5.07;3.10;;;;;;;;;;4950745;29;20029;-82
2021/07/12 02:34:16;;;;;;;6.95;2.90;;;;;;;;;;4967749;28;20289;-82
2021/07/12 02:37:02;;;;;;;5.07;2.42;;;;;;;;;;4971091;28;20035;-82
2021/07/12 02:39:48;;;;;;;7.28;3.20;;;;;;;;;;4963611;28;20061;-82
2021/07/12 02:42:35;;;;;;;4.10;2.55;;;;;;;;;;4952208;29;20035;-82
2021/07/12 02:45:22;;;;;;;7.63;2.83;;;;;;;;;;4971226;28;20382;-82
2021/07/12 02:48:07;;;;;;;5.35;2.60;;;;;;;;;;4969718;28;20134;-82
2021/07/12 02:50:52;;;;;;;5.30;2.60;;;;;;;;;;4971002;28;20386;-83
2021/07/12 02:54:01;;;;;;;5.50;2.88;;;;;;;;;;4970885;28;20046;-83
2021/07/12 02:56:46;;;;;;;4.15;2.80;;;;;;;;;;4970994;28;20501;-82
2021/07/12 02:59:31;;;;;;;14.30;2.92;;;;;;;;;;4971256;28;20034;-81
2021/07/12 03:02:16;;;;;;;5.88;3.10;;;;;;;;;;4970920;28;20022;-83
2021/07/12 03:05:03;;;;;;;8.85;3.70;;;;;;;;;;4970498;28;20142;-82
2021/07/12 03:07:59;;;;;;;6.82;2.72;;;;;;;;;;4970779;28;20042;-82
2021/07/12 03:10:51;;;;;;;4.97;2.70;;;;;;;;;;4950079;29;20310;-82
2021/07/12 03:13:51;;;;;;;4.88;2.90;;;;;;;;;;4968524;28;20030;-82
2021/07/12 03:16:38;;;;;;;3.42;2.50;;;;;;;;;;4970881;28;20027;-82
2021/07/12 03:19:29;;;;;;;5.38;2.58;;;;;;;;;;4969185;28;20069;-81
2021/07/12 03:22:14;;;;;;;4.45;2.58;;;;;;;;;;4970852;28;20776;-81
2021/07/12 03:25:00;;;;;;;9.73;2.83;;;;;;;;;;4959036;28;20035;-81
2021/07/12 03:27:45;;;;;;;9.35;2.90;;;;;;;;;;4964008;28;20030;-81
2021/07/12 03:30:31;;;;;;;6.00;2.67;;;;;;;;;;4967268;28;20031;-82
2021/07/12 03:33:19;;;;;;;3.40;2.70;;;;;;;;;;4970540;28;20432;-82
2021/07/12 03:36:05;;;;;;;7.78;2.85;;;;;;;;;;4967237;28;20097;-82
2021/07/12 03:38:50;;;;;;;5.15;3.17;;;;;;;;;;4949650;29;20086;-82
2021/07/12 03:41:37;;;;;;;4.85;3.08;;;;;;;;;;4950756;29;20035;-83
2021/07/12 03:44:22;;;;;;;4.47;2.55;;;;;;;;;;4957240;28;20559;-82
2021/07/12 03:47:07;;;;;;;5.72;3.05;;;;;;;;;;4970464;28;20159;-83
2021/07/12 03:49:53;;;;;;;5.38;2.40;;;;;;;;;;4968450;28;20051;-82
2021/07/12 03:52:43;;;;;;;4.38;2.90;;;;;;;;;;4970342;28;20430;-82
2021/07/12 03:55:29;;;;;;;7.63;2.88;;;;;;;;;;4967643;28;20023;-83
2021/07/12 03:58:15;;;;;;;3.13;2.33;;;;;;;;;;4970136;28;20034;-82
2021/07/12 04:01:00;;;;;;;6.80;2.75;;;;;;;;;;4969961;28;20031;-82
2021/07/12 04:03:46;;;;;;;5.20;2.90;;;;;;;;;;4967927;28;20082;-82
2021/07/12 04:06:31;;;;;;;5.60;2.78;;;;;;;;;;4969384;28;20051;-82
2021/07/12 04:09:16;;;;;;;5.82;2.40;;;;;;;;;;4969243;28;20034;-82
2021/07/12 04:12:02;;;;;;;6.60;2.97;;;;;;;;;;4968311;28;20027;-82
2021/07/12 04:14:47;;;;;;;7.40;2.78;;;;;;;;;;4969267;28;20026;-82
2021/07/12 04:17:32;;;;;;;5.07;3.22;;;;;;;;;;4967661;28;20030;-83
2021/07/12 04:20:17;;;;;;;6.32;2.80;;;;;;;;;;4969528;28;20015;-82
2021/07/12 04:23:03;;;;;;;4.97;2.88;;;;;;;;;;4969854;28;20030;-82
2021/07/12 04:25:48;;;;;;;8.70;3.20;;;;;;;;;;4969335;28;20096;-82
2021/07/12 04:28:33;;;;;;;7.85;2.60;;;;;;;;;;4969707;28;20018;-82
2021/07/12 04:31:19;;;;;;;4.93;2.85;;;;;;;;;;4969259;28;20474;-82
2021/07/12 04:34:04;;;;;;;7.35;2.72;;;;;;;;;;4954411;28;20059;-83
2021/07/12 04:36:49;;;;;;;5.38;3.00;;;;;;;;;;4969313;28;20071;-83
2021/07/12 04:39:34;;;;;;;7.20;2.85;;;;;;;;;;4969554;28;20026;-82
2021/07/12 04:42:19;;;;;;;6.70;3.28;;;;;;;;;;4969115;28;20018;-81
2021/07/12 04:45:05;;;;;;;5.57;3.15;;;;;;;;;;4969490;28;20065;-82
2021/07/12 04:47:50;;;;;;;6.07;3.70;;;;;;;;;;4969090;28;20113;-82
2021/07/12 04:50:35;;;;;;;4.40;3.13;;;;;;;;;;4948136;29;20062;-82
2021/07/12 04:53:20;;;;;;;6.15;3.10;;;;;;;;;;4949941;29;20467;-84
2021/07/12 04:56:07;;;;;;;6.22;3.50;;;;;;;;;;4967528;28;20089;-82
2021/07/12 04:58:53;;;;;;;7.15;3.00;;;;;;;;;;4969142;28;20118;-82
2021/07/12 05:01:39;;;;;;;6.55;2.83;;;;;;;;;;4969158;28;20110;-81
2021/07/12 05:04:24;;;;;;;6.07;3.50;;;;;;;;;;4968647;28;20105;-82
2021/07/12 05:07:13;;;;;;;6.43;3.10;;;;;;;;;;4969033;28;20055;-81
2021/07/12 05:09:58;;;;;;;7.18;3.00;;;;;;;;;;4968614;28;20432;-82
2021/07/12 05:12:43;;;;;;;9.73;2.85;;;;;;;;;;4963268;28;20035;-83
2021/07/12 05:15:29;;;;;;;5.43;3.33;;;;;;;;;;4952609;28;20486;-83
2021/07/12 05:18:14;;;;;;;8.43;3.45;;;;;;;;;;4949812;29;20031;-83
2021/07/12 05:20:59;;;;;;;9.82;3.08;;;;;;;;;;4950014;29;20034;-83
2021/07/12 05:23:44;;;;;;;6.60;3.22;;;;;;;;;;4965180;28;20109;-82
2021/07/12 05:26:30;;;;;;;4.75;3.05;;;;;;;;;;4968648;28;20081;-83
2021/07/12 05:29:15;;;;;;;5.15;2.72;;;;;;;;;;4969192;28;20429;-82
2021/07/12 05:32:00;;;;;;;5.38;2.85;;;;;;;;;;4969039;28;20027;-85
2021/07/12 05:34:46;;;;;;;4.82;3.03;;;;;;;;;;4967115;28;20027;-83
2021/07/12 05:37:31;;;;;;;6.30;3.00;;;;;;;;;;4969398;28;20062;-83
2021/07/12 05:40:16;;;;;;;5.18;2.47;;;;;;;;;;4968957;28;20058;-83
2021/07/12 05:43:02;;;;;;;7.60;3.00;;;;;;;;;;4968746;28;20022;-83
2021/07/12 05:45:47;;;;;;;5.45;2.65;;;;;;;;;;4964139;28;20027;-82
2021/07/12 05:48:32;;;;;;;4.00;2.47;;;;;;;;;;4971148;28;20035;-83
2021/07/12 05:51:18;;;;;;;4.38;2.72;;;;;;;;;;4972004;28;20504;-84
2021/07/12 05:54:03;;;;;;;5.57;2.70;;;;;;;;;;4971926;28;20425;-83
2021/07/12 05:56:48;;;;;;;7.45;2.88;;;;;;;;;;4965937;28;20038;-83
2021/07/12 05:59:33;;;;;;;3.30;2.40;;;;;;;;;;4953106;29;20023;-82
2021/07/12 06:02:18;;;;;;;4.82;2.60;;;;;;;;;;4952849;29;20023;-83
2021/07/12 06:05:04;;;;;;;5.57;3.75;;;;;;;;;;4953438;28;20516;-83
2021/07/12 06:07:49;;;;;;;6.72;3.00;;;;;;;;;;4972123;28;20078;-83
2021/07/12 06:10:34;;;;;;;4.78;2.35;;;;;;;;;;4958760;28;20032;-83
2021/07/12 06:13:20;;;;;;;13.88;10.10;;;;;;;;;;4971532;28;20031;-83
2021/07/12 06:16:05;;;;;;;7.47;3.80;;;;;;;;;;4972024;28;20133;-83
2021/07/12 06:18:51;;;;;;;5.68;2.85;;;;;;;;;;4969968;28;20062;-83
2021/07/12 06:21:36;;;;;;;5.75;2.40;;;;;;;;;;4971571;28;20035;-83
2021/07/12 06:24:21;;;;;;;4.32;2.88;;;;;;;;;;4965384;28;20319;-83
2021/07/12 06:27:06;;;;;;;6.45;2.65;;;;;;;;;;4948580;29;20031;-85
2021/07/12 06:29:51;;;;;;;3.08;2.03;;;;;;;;;;4952181;29;20031;-83
2021/07/12 06:32:37;;;;;;;3.78;2.58;;;;;;;;;;4963134;28;20023;-83
2021/07/12 06:35:22;;;;;;;4.03;2.15;;;;;;;;;;4970410;28;20492;-83
2021/07/12 06:38:07;;;;;;;3.63;2.42;;;;;;;;;;4971130;28;20022;-83
2021/07/12 06:40:52;;;;;;;8.95;5.97;;;;;;;;;;4969839;28;20394;-84
2021/07/12 06:43:38;;;;;;;8.93;6.22;;;;;;;;;;4965125;28;20019;-84
2021/07/12 06:46:23;;;;;;;5.10;3.17;;;;;;;;;;4960487;28;20034;-86
2021/07/12 06:49:08;;;;;;;8.43;4.93;;;;;;;;;;4969480;28;20029;-83
2021/07/12 06:51:54;;;;;;;4.20;2.33;;;;;;;;;;4971031;28;20034;-84
2021/07/12 06:54:39;;;;;;;8.07;3.30;;;;;;;;;;4970721;28;20114;-84
2021/07/12 06:57:24;;;;;;;5.32;2.92;;;;;;;;;;4971479;28;20035;-84
2021/07/12 07:00:10;;;;;;;5.25;2.50;;;;;;;;;;4970130;28;20046;-84
2021/07/12 07:02:55;;;;;;;2.67;1.83;;;;;;;;;;4967940;28;20023;-82
2021/07/12 07:05:40;;;;;;;4.05;2.13;;;;;;;;;;4970293;28;20090;-83
2021/07/12 07:08:26;;;;;;;2.88;2.00;;;;;;;;;;4964706;28;20039;-84
2021/07/12 07:11:11;;;;;;;5.00;2.00;;;;;;;;;;4955144;28;20031;-83
2021/07/12 07:13:56;;;;;;;6.90;2.17;;;;;;;;;;4970229;28;20030;-84
2021/07/12 07:16:43;;;;;;;2.72;1.80;;;;;;;;;;4970042;28;20039;-83
2021/07/12 07:19:28;;;;;;;2.15;1.75;;;;;;;;;;4970524;28;20029;-83
2021/07/12 07:22:13;;;;;;;4.38;2.10;;;;;;;;;;4970237;28;20043;-83
2021/07/12 07:24:58;;;;;;;2.45;1.83;;;;;;;;;;4970704;28;20031;-83
2021/07/12 07:27:44;;;;;;;3.78;2.40;;;;;;;;;;4964258;28;20035;-83
2021/07/12 07:30:29;;;;;;;2.53;2.15;;;;;;;;;;4953913;28;20512;-83
2021/07/12 07:33:14;;;;;;;7.40;2.65;;;;;;;;;;4970611;28;20274;-82
2021/07/12 07:36:00;;;;;;;4.00;2.60;;;;;;;;;;4969893;28;20022;-83
2021/07/12 07:38:45;;;;;;;3.15;2.13;;;;;;;;;;4970139;28;20018;-84
2021/07/12 07:41:31;;;;;;;1.92;1.73;;;;;;;;;;4957446;28;20031;-83
2021/07/12 07:44:16;;;;;;;3.50;1.80;;;;;;;;;;4950596;29;20027;-84
2021/07/12 07:47:01;;;;;;;3.13;2.15;;;;;;;;;;4962826;28;20172;-87
2021/07/12 07:49:47;;;;;;;5.50;2.30;;;;;;;;;;4968370;28;20381;-84
2021/07/12 07:52:32;;;;;;;2.95;2.33;;;;;;;;;;4969926;28;20042;-84
2021/07/12 07:55:17;;;;;;;10.63;2.38;;;;;;;;;;4969724;28;20669;-83
2021/07/12 07:58:03;;;;;;;9.15;5.68;;;;;;;;;;4969737;28;20019;-83
2021/07/12 08:00:48;;;;;;;6.93;2.30;;;;;;;;;;4969638;28;20397;-83
2021/07/12 08:03:33;;;;;;;2.22;1.63;;;;;;;;;;4970135;28;20046;-84
2021/07/12 08:06:18;;;;;;;2.72;1.90;;;;;;;;;;4968788;28;20607;-83
2021/07/12 08:09:04;;;;;;;1.90;1.58;;;;;;;;;;4967894;28;20481;-83
2021/07/12 08:11:51;;;;;;;2.83;2.08;;;;;;;;;;4965003;28;20359;-83
2021/07/12 08:14:36;;;;;;;7.93;2.63;;;;;;;;;;4968920;28;20030;-84
2021/07/12 08:17:22;;;;;;;3.10;2.03;;;;;;;;;;4969319;28;20097;-83
2021/07/12 08:20:08;;;;;;;4.35;1.80;;;;;;;;;;4966151;28;20026;-84
2021/07/12 08:22:54;;;;;;;2.33;1.73;;;;;;;;;;4966091;28;20057;-84
2021/07/12 08:25:39;;;;;;;3.72;1.88;;;;;;;;;;4969576;28;20022;-84
2021/07/12 08:28:25;;;;;;;2.38;1.63;;;;;;;;;;4961567;28;20023;-84
2021/07/12 08:31:11;;;;;;;3.42;1.70;;;;;;;;;;4962142;28;20034;-84
2021/07/12 08:33:56;;;;;;;2.50;1.88;;;;;;;;;;4969040;28;20033;-85
2021/07/12 08:36:42;;;;;;;2.42;1.73;;;;;;;;;;4968878;28;20030;-85
2021/07/12 08:39:27;;;;;;;3.45;1.70;;;;;;;;;;4967389;28;20124;-84
2021/07/12 08:42:12;;;;;;;3.75;1.90;;;;;;;;;;4962932;28;20031;-85
2021/07/12 08:44:57;;;;;;;3.25;2.47;;;;;;;;;;4949870;29;20031;-86
2021/07/12 08:47:43;;;;;;;7.35;3.97;;;;;;;;;;4951706;28;20029;-85
2021/07/12 08:50:28;;;;;;;4.50;2.03;;;;;;;;;;4969203;28;20093;-85
2021/07/12 08:53:14;;;;;;;4.00;1.92;;;;;;;;;;4965620;28;20034;-85
2021/07/12 08:56:00;;;;;;;4.97;1.75;;;;;;;;;;4969720;28;20019;-85
2021/07/12 08:58:45;;;;;;;3.45;1.55;;;;;;;;;;4967061;28;20031;-86
2021/07/12 09:01:30;;;;;;;2.10;1.45;;;;;;;;;;4968968;28;20037;-85
2021/07/12 09:04:25;;;;;;;3.42;1.65;;;;;;;;;;4969045;28;20453;-85
2021/07/12 09:07:18;;;;;;;3.10;1.60;;;;;;;;;;4968973;28;20047;-85
2021/07/12 09:10:04;;;;;;;1.83;1.55;;;;;;;;;;4968646;28;20447;-85
2021/07/12 09:12:50;;;;;;;4.97;1.85;;;;;;;;;;4967748;28;20035;-85
2021/07/12 09:15:36;;;;;;;8.30;6.30;;;;;;;;;;4963061;28;20035;-86
2021/07/12 09:18:21;;;;;;;2.65;2.13;;;;;;;;;;4952144;28;20109;-83
2021/07/12 09:21:15;;;;;;;1.75;1.35;;;;;;;;;;4969127;28;20245;-86
2021/07/12 09:24:27;;;;;;;2.70;1.67;;;;;;;;;;4967618;28;20493;-86
2021/07/12 09:27:13;;;;;;;2.75;1.55;;;;;;;;;;4973118;28;20049;-86
2021/07/12 09:30:06;;;;;;;2.90;1.88;;;;;;;;;;4972401;28;20026;-86
2021/07/12 09:32:52;;;;;;;2.17;1.70;;;;;;;;;;4967522;28;20027;-85
2021/07/12 09:35:37;;;;;;;1.98;1.45;;;;;;;;;;4953153;29;20027;-86
2021/07/12 09:38:32;;;;;;;2.58;1.55;;;;;;;;;;4953376;28;20474;-85
2021/07/12 09:41:27;;;;;;;2.83;1.50;;;;;;;;;;4972077;28;20034;-85
2021/07/12 09:44:12;;;;;;;2.80;1.30;;;;;;;;;;4972549;28;20035;-84
2021/07/12 09:47:03;;;;;;;2.47;1.48;;;;;;;;;;4959175;28;20042;-86
2021/07/12 09:49:49;;;;;;;2.20;1.63;;;;;;;;;;4966391;28;20027;-85
2021/07/12 09:52:58;;;;;;;2.55;1.45;;;;;;;;;;4964668;28;20038;-85
2021/07/12 09:55:44;;;;;;;2.40;1.65;;;;;;;;;;4971839;28;20485;-85
2021/07/12 09:58:30;;;;;;;1.52;1.42;;;;;;;;;;4972541;28;20461;-84
2021/07/12 10:01:22;;;;;;;3.22;1.65;;;;;;;;;;4971922;28;20054;-85
2021/07/12 10:04:08;;;;;;;1.63;1.40;;;;;;;;;;4974079;28;20088;-85
2021/07/12 10:06:54;;;;;;;3.72;1.80;;;;;;;;;;4970914;28;20051;-85
2021/07/12 10:09:39;;;;;;;2.22;1.77;;;;;;;;;;4971176;28;20023;-84
2021/07/12 10:12:25;;;;;;;1.60;1.30;;;;;;;;;;4966781;28;20031;-84
2021/07/12 10:15:11;;;;;;;4.05;1.75;;;;;;;;;;4961719;28;20041;-87
2021/07/12 10:17:57;;;;;;;1.75;1.55;;;;;;;;;;4972708;28;20026;-85
2021/07/12 10:20:42;;;;;;;4.60;1.70;;;;;;;;;;4958078;28;20386;-85
2021/07/12 10:23:27;;;;;;;3.75;1.63;;;;;;;;;;4971985;28;20482;-85
2021/07/12 10:26:13;;;;;;;2.38;1.50;;;;;;;;;;4972045;28;20058;-85
2021/07/12 10:29:09;;;;;;;1.67;1.40;;;;;;;;;;4970132;28;20031;-86
2021/07/12 10:31:54;;;;;;;2.97;1.83;;;;;;;;;;4971604;28;20066;-85
2021/07/12 10:34:41;;;;;;;2.80;1.73;;;;;;;;;;4970306;28;20022;-84
2021/07/12 10:37:26;;;;;;;3.03;1.90;;;;;;;;;;4971818;28;20026;-87
2021/07/12 10:40:18;;;;;;;3.33;2.42;;;;;;;;;;4972176;28;20030;-86
2021/07/12 10:43:03;;;;;;;10.88;8.45;;;;;;;;;;4972156;28;20022;-86
2021/07/12 10:45:49;;;;;;;3.58;2.10;;;;;;;;;;4971828;28;20079;-87
2021/07/12 10:48:36;;;;;;;4.63;2.30;;;;;;;;;;4971845;28;20035;-86
2021/07/12 10:51:22;;;;;;;2.80;1.35;;;;;;;;;;4966589;28;20035;-88
2021/07/12 10:54:12;;;;;;;2.75;1.85;;;;;;;;;;4952996;29;20024;-87
2021/07/12 10:56:58;;;;;;;1.60;1.50;;;;;;;;;;4956967;28;20548;-87
2021/07/12 10:59:43;;;;;;;24.70;20.48;;;;;;;;;;4971722;28;20025;-87
2021/07/12 11:02:30;;;;;;;4.40;2.45;;;;;;;;;;4952765;29;20311;-88
2021/07/12 11:05:15;;;;;;;3.22;1.80;;;;;;;;;;4952827;28;20047;-86
2021/07/12 11:08:00;;;;;;;2.72;1.70;;;;;;;;;;4962207;28;20035;-88
2021/07/12 11:10:50;;;;;;;2.70;1.77;;;;;;;;;;4972030;28;20019;-87
2021/07/12 11:13:53;;;;;;;3.40;1.80;;;;;;;;;;4967574;28;20041;-87
2021/07/12 11:16:45;;;;;;;2.17;1.48;;;;;;;;;;4969441;28;20019;-86
2021/07/12 11:19:33;;;;;;;2.42;1.42;;;;;;;;;;4965571;28;20086;-86
2021/07/12 11:22:23;;;;;;;4.65;1.75;;;;;;;;;;4966179;28;20023;-85
2021/07/12 11:25:08;;;;;;;2.60;1.73;;;;;;;;;;4971495;28;20386;-84
2021/07/12 11:28:06;;;;;;;2.20;1.80;;;;;;;;;;4973528;28;20224;-89
2021/07/12 11:30:51;;;;;;;6.00;1.70;;;;;;;;;;4980572;28;20049;-87
2021/07/12 11:33:38;;;;;;;1.65;1.55;;;;;;;;;;4970100;28;20046;-87
2021/07/12 11:36:23;;;;;;;1.33;1.20;;;;;;;;;;4972281;28;20057;-89
2021/07/12 11:39:08;;;;;;;2.17;1.48;;;;;;;;;;4970692;28;20119;-87
2021/07/12 11:41:54;;;;;;;1.98;1.60;;;;;;;;;;4958134;28;20525;-86
2021/07/12 11:44:46;;;;;;;1.63;1.50;;;;;;;;;;4972852;28;20023;-85
2021/07/12 11:47:34;;;;;;;2.30;1.42;;;;;;;;;;4971041;28;20429;-87
2021/07/12 11:50:21;;;;;;;2.75;1.70;;;;;;;;;;4972698;28;20105;-87
2021/07/12 11:53:07;;;;;;;2.95;1.85;;;;;;;;;;4948707;28;20035;-86
2021/07/12 11:55:52;;;;;;;3.53;1.83;;;;;;;;;;4953896;29;20339;-86
2021/07/12 11:58:37;;;;;;;3.45;1.42;;;;;;;;;;4953106;29;20525;-86
2021/07/12 12:01:22;;;;;;;2.88;1.90;;;;;;;;;;4956618;28;20670;-87
2021/07/12 12:04:07;;;;;;;3.65;2.15;;;;;;;;;;4957465;28;20023;-87
2021/07/12 12:06:53;;;;;;;2.40;1.60;;;;;;;;;;4971039;28;20054;-86
2021/07/12 12:09:48;;;;;;;1.50;1.40;;;;;;;;;;4969999;28;20104;-87
2021/07/12 12:12:35;;;;;;;2.58;1.60;;;;;;;;;;4957897;28;20030;-87
2021/07/12 12:15:21;;;;;;;1.55;1.45;;;;;;;;;;4968276;28;20024;-86
2021/07/12 12:18:06;;;;;;;2.75;1.60;;;;;;;;;;4952774;29;20023;-87
2021/07/12 12:20:52;;;;;;;3.22;1.60;;;;;;;;;;4969480;28;20121;-86
2021/07/12 12:23:37;;;;;;;1.60;1.50;;;;;;;;;;4964655;28;20054;-86
2021/07/12 12:26:23;;;;;;;1.67;1.27;;;;;;;;;;4952110;29;20019;-88
2021/07/12 12:29:09;;;;;;;4.55;1.40;;;;;;;;;;4952678;29;20118;-87
2021/07/12 12:31:54;;;;;;;2.92;1.58;;;;;;;;;;4956343;28;20065;-89
2021/07/12 12:34:39;;;;;;;3.92;2.28;;;;;;;;;;4956189;28;20034;-87
2021/07/12 12:37:32;;;;;;;3.13;1.70;;;;;;;;;;4970694;28;20065;-86
2021/07/12 12:40:17;;;;;;;1.60;1.42;;;;;;;;;;4970608;28;20027;-85
2021/07/12 12:43:17;;;;;;;1.98;1.80;;;;;;;;;;4970005;28;20027;-87
2021/07/12 12:46:04;;;;;;;2.00;1.48;;;;;;;;;;4969845;28;20569;-87
2021/07/12 12:48:49;;;;;;;3.15;1.65;;;;;;;;;;4968820;28;20030;-88
2021/07/12 12:51:34;;;;;;;1.83;1.60;;;;;;;;;;4971741;28;20069;-87
2021/07/12 12:54:21;;;;;;;1.42;1.33;;;;;;;;;;4950775;29;20031;-86
2021/07/12 12:57:07;;;;;;;2.40;1.75;;;;;;;;;;4936435;29;20023;-88
2021/07/12 13:00:03;;;;;;;5.18;4.18;;;;;;;;;;4951472;28;20023;-87
2021/07/12 13:02:49;;;;;;;4.10;2.78;;;;;;;;;;4943707;28;20027;-87
2021/07/12 13:05:34;;;;;;;4.30;1.88;;;;;;;;;;4971573;28;20556;-88
2021/07/12 13:08:19;;;;;;;1.88;1.70;;;;;;;;;;4971920;28;20445;-86
2021/07/12 13:11:04;;;;;;;1.90;1.60;;;;;;;;;;4956799;28;20023;-88
2021/07/12 13:13:55;;;;;;;3.67;1.50;;;;;;;;;;4970032;28;20093;-86
2021/07/12 13:16:40;;;;;;;2.58;1.58;;;;;;;;;;4969942;28;20062;-87
2021/07/12 13:19:28;;;;;;;3.67;2.00;;;;;;;;;;4970516;28;20061;-86
2021/07/12 13:22:18;;;;;;;3.55;1.83;;;;;;;;;;4970023;28;20023;-87
2021/07/12 13:25:03;;;;;;;;;;;;;;;;;;4951668;29;20023;-87
2021/07/12 13:27:56;;;;;;;2.17;1.60;;;;;;;;;;4951964;29;19926;-86
2021/07/12 13:30:44;;;;;;;2.58;1.60;;;;;;;;;;4950915;29;20490;-87
2021/07/12 13:33:29;;;;;;;2.70;1.70;;;;;;;;;;4953550;28;20038;-86
2021/07/12 13:36:16;;;;;;;1.70;1.60;;;;;;;;;;4950815;29;20109;-88
2021/07/12 13:39:01;;;;;;;1.92;1.75;;;;;;;;;;4950520;29;20038;-87
2021/07/12 13:41:47;;;;;;;3.45;1.52;;;;;;;;;;4963776;28;20026;-86
2021/07/12 13:44:32;;;;;;;1.75;1.63;;;;;;;;;;4964024;28;20035;-87
2021/07/12 13:47:17;;;;;;;2.47;1.88;;;;;;;;;;4952215;29;20023;-86
2021/07/12 13:50:03;;;;;;;3.30;1.95;;;;;;;;;;4950191;29;20101;-84
2021/07/12 13:52:50;;;;;;;4.03;1.80;;;;;;;;;;4952510;28;20063;-85
2021/07/12 13:55:35;;;;;;;5.88;2.15;;;;;;;;;;4969518;28;20085;-85
2021/07/12 13:58:22;;;;;;;2.22;1.50;;;;;;;;;;4970072;28;20022;-85
2021/07/12 14:01:07;;;;;;;1.88;1.67;;;;;;;;;;4969276;28;20023;-86
2021/07/12 14:03:52;;;;;;;3.17;2.10;;;;;;;;;;4966889;28;20106;-86
2021/07/12 14:06:37;;;;;;;10.10;6.90;;;;;;;;;;4968845;28;20054;-84
2021/07/12 14:09:23;;;;;;;7.57;2.50;;;;;;;;;;4971522;28;20019;-84
2021/07/12 14:12:09;;;;;;;3.45;1.95;;;;;;;;;;4972711;28;20158;-85
2021/07/12 14:14:54;;;;;;;3.90;1.80;;;;;;;;;;4970939;28;20110;-88
2021/07/12 14:17:39;;;;;;;3.13;1.60;;;;;;;;;;4973211;28;20023;-85
2021/07/12 14:20:25;;;;;;;2.97;1.77;;;;;;;;;;4972070;28;20481;-86
2021/07/12 14:23:10;;;;;;;4.93;1.85;;;;;;;;;;4972603;28;20026;-85
2021/07/12 14:25:55;;;;;;;3.75;1.58;;;;;;;;;;4970655;28;20090;-85
2021/07/12 14:28:41;;;;;;;4.05;2.08;;;;;;;;;;4972159;28;20027;-85
2021/07/12 14:31:26;;;;;;;2.00;1.48;;;;;;;;;;4969314;28;20331;-85
2021/07/12 14:34:11;;;;;;;2.78;1.80;;;;;;;;;;4968221;28;20034;-85
2021/07/12 14:36:56;;;;;;;4.07;2.25;;;;;;;;;;4972171;28;20153;-87
2021/07/12 14:39:41;;;;;;;25.85;20.33;;;;;;;;;;4970496;28;20022;-84
2021/07/12 14:42:27;;;;;;;7.43;5.78;;;;;;;;;;4971858;28;20019;-85
2021/07/12 14:45:12;;;;;;;4.50;2.40;;;;;;;;;;4972340;28;20544;-86
2021/07/12 14:47:57;;;;;;;3.97;2.70;;;;;;;;;;4967065;28;20085;-87
2021/07/12 14:50:45;;;;;;;4.05;2.45;;;;;;;;;;4960097;28;20483;-89
2021/07/12 14:53:30;;;;;;;4.05;2.33;;;;;;;;;;4947400;29;20059;-86
2021/07/12 14:56:15;;;;;;;7.15;2.20;;;;;;;;;;4952323;29;20035;-86
2021/07/12 14:59:01;;;;;;;3.70;2.35;;;;;;;;;;4953835;28;20058;-86
2021/07/12 15:01:46;;;;;;;2.75;1.70;;;;;;;;;;4971872;28;20058;-87
2021/07/12 15:04:31;;;;;;;9.10;2.85;;;;;;;;;;4971452;28;20106;-89
2021/07/12 15:07:16;;;;;;;2.67;1.90;;;;;;;;;;4971366;28;20046;-87
2021/07/12 15:10:02;;;;;;;2.50;1.90;;;;;;;;;;4965478;28;20107;-87
2021/07/12 15:12:47;;;;;;;3.05;2.38;;;;;;;;;;4962945;28;20019;-87
2021/07/12 15:15:32;;;;;;;4.03;2.17;;;;;;;;;;4964962;28;20031;-87
2021/07/12 15:18:18;;;;;;;3.90;2.22;;;;;;;;;;4952122;29;20027;-87
2021/07/12 15:21:03;;;;;;;28.00;22.70;;;;;;;;;;4963531;28;20023;-87
2021/07/12 15:23:48;;;;;;;4.28;3.22;;;;;;;;;;4970701;28;20034;-87
2021/07/12 15:26:33;;;;;;;3.95;2.50;;;;;;;;;;4968318;28;20054;-88
2021/07/12 15:29:19;;;;;;;5.05;2.30;;;;;;;;;;4971610;28;20073;-87
2021/07/12 15:32:04;;;;;;;3.70;2.17;;;;;;;;;;4963526;28;20066;-90
2021/07/12 15:34:51;;;;;;;4.35;2.20;;;;;;;;;;4957133;28;20055;-86
2021/07/12 15:37:37;;;;;;;4.18;2.25;;;;;;;;;;4971430;28;20027;-88
2021/07/12 15:40:22;;;;;;;2.72;2.17;;;;;;;;;;4970678;28;20493;-88
2021/07/12 15:43:07;;;;;;;4.28;2.40;;;;;;;;;;4971252;28;20026;-88
2021/07/12 15:45:54;;;;;;;7.18;4.50;;;;;;;;;;4964778;28;20489;-87
2021/07/12 15:48:39;;;;;;;5.50;3.83;;;;;;;;;;4950447;29;20061;-88
2021/07/12 15:51:24;;;;;;;4.65;2.85;;;;;;;;;;4952268;28;20038;-87
2021/07/12 15:54:10;;;;;;;3.22;1.92;;;;;;;;;;4951251;29;20034;-88
2021/07/12 15:56:55;;;;;;;3.78;2.65;;;;;;;;;;4948354;29;20027;-87
2021/07/12 15:59:40;;;;;;;3.67;2.22;;;;;;;;;;4964357;28;20084;-86
2021/07/12 16:02:26;;;;;;;6.03;2.22;;;;;;;;;;4962799;28;20027;-87
2021/07/12 16:05:15;;;;;;;3.42;2.33;;;;;;;;;;4967279;28;20066;-86
2021/07/12 16:08:02;;;;;;;4.07;2.15;;;;;;;;;;4967190;28;20532;-88
2021/07/12 16:10:47;;;;;;;2.97;1.92;;;;;;;;;;4969281;28;20027;-88
2021/07/12 16:13:32;;;;;;;7.05;2.17;;;;;;;;;;4970743;28;20045;-87
2021/07/12 16:16:18;;;;;;;3.42;2.33;;;;;;;;;;4970250;28;20038;-88
2021/07/12 16:19:03;;;;;;;3.25;1.92;;;;;;;;;;4970775;28;20027;-87
2021/07/12 16:21:49;;;;;;;3.63;2.42;;;;;;;;;;4964534;28;20089;-87
2021/07/12 16:24:34;;;;;;;3.95;2.38;;;;;;;;;;4951307;29;20019;-87
2021/07/12 16:27:19;;;;;;;3.47;2.10;;;;;;;;;;4951792;29;20023;-88
2021/07/12 16:30:05;;;;;;;5.00;2.00;;;;;;;;;;4951137;29;20090;-88
2021/07/12 16:32:50;;;;;;;9.10;3.65;;;;;;;;;;4966931;28;20042;-88
2021/07/12 16:35:35;;;;;;;6.10;3.08;;;;;;;;;;4976424;28;20456;-88
2021/07/12 16:38:21;;;;;;;5.65;2.50;;;;;;;;;;4971471;28;20027;-88
2021/07/12 16:41:06;;;;;;;7.93;4.05;;;;;;;;;;4970397;28;20023;-87